Time;durP1;ratioP1;P1;durP2;ratioP2;P2;SDS_P1;SDS_P2;PMS_P1;PMS_P2;Temp;Humidity;BMP_temperature;BMP_pressure;BME280_temperature;BME280_humidity;BME280_pressure;Samples;Min_cycle;Max_cycle;Signal;HPM_P1;HPM_P2
2023/08/28 00:00:15;;;;;;;3.70;1.87;;;;;;;;;;5096433;28;20034;-74
2023/08/28 00:02:41;;;;;;;3.17;1.30;;;;;;;;;;5096735;28;20319;-74
2023/08/28 00:05:07;;;;;;;1.50;1.20;;;;;;;;;;5098892;28;20076;-74
2023/08/28 00:07:34;;;;;;;4.20;1.27;;;;;;;;;;5096901;28;20031;-74
2023/08/28 00:10:02;;;;;;;3.10;1.80;;;;;;;;;;5112600;28;20023;-75
2023/08/28 00:12:28;;;;;;;2.90;1.90;;;;;;;;;;5108837;28;20029;-74
2023/08/28 00:14:56;;;;;;;2.23;1.40;;;;;;;;;;5111649;28;20028;-74
2023/08/28 00:17:22;;;;;;;3.73;1.30;;;;;;;;;;5095404;28;20040;-74
2023/08/28 00:19:50;;;;;;;3.83;1.67;;;;;;;;;;5110958;28;20041;-74
2023/08/28 00:22:16;;;;;;;2.83;1.30;;;;;;;;;;5092557;28;20092;-74
2023/08/28 00:24:44;;;;;;;6.03;1.03;;;;;;;;;;5091793;28;20016;-74
2023/08/28 00:27:14;;;;;;;2.30;1.30;;;;;;;;;;5091527;28;20036;-74
2023/08/28 00:29:40;;;;;;;3.40;1.60;;;;;;;;;;5090747;28;20043;-74
2023/08/28 00:32:06;;;;;;;3.77;1.60;;;;;;;;;;5096548;28;20032;-74
2023/08/28 00:34:34;;;;;;;3.17;1.30;;;;;;;;;;5110499;28;20028;-74
2023/08/28 00:37:03;;;;;;;6.73;1.53;;;;;;;;;;5095828;28;20012;-74
2023/08/28 00:39:29;;;;;;;3.40;1.60;;;;;;;;;;5095651;28;20012;-74
2023/08/28 00:41:55;;;;;;;5.27;1.80;;;;;;;;;;5095941;28;20076;-74
2023/08/28 00:44:21;;;;;;;16.47;1.87;;;;;;;;;;5096647;28;20088;-75
2023/08/28 00:46:47;;;;;;;1.70;1.20;;;;;;;;;;5095907;28;20020;-74
2023/08/28 00:49:13;;;;;;;3.20;1.37;;;;;;;;;;5088829;28;20035;-74
2023/08/28 00:51:39;;;;;;;3.77;1.60;;;;;;;;;;5093458;28;20051;-74
2023/08/28 00:54:07;;;;;;;4.43;1.27;;;;;;;;;;5092124;28;20024;-74
2023/08/28 00:56:33;;;;;;;4.43;2.10;;;;;;;;;;5110158;28;20047;-75
2023/08/28 00:59:02;;;;;;;2.37;1.27;;;;;;;;;;5112933;28;20031;-75
2023/08/28 01:01:28;;;;;;;2.90;1.37;;;;;;;;;;5095837;28;20021;-74
2023/08/28 01:03:54;;;;;;;2.27;1.50;;;;;;;;;;5097285;28;20084;-74
2023/08/28 01:06:31;;;;;;;3.00;1.30;;;;;;;;;;5096339;28;20020;-74
2023/08/28 01:09:03;;;;;;;2.30;1.37;;;;;;;;;;5091820;28;20016;-76
2023/08/28 01:11:36;;;;;;;2.58;1.58;;;;;;;;;;5091418;28;20040;-74
2023/08/28 01:14:02;;;;;;;;;;;;;;;;;;5095770;28;21007;-74
2023/08/28 01:16:29;;;;;;;3.10;1.07;;;;;;;;;;5097773;28;19971;-76
2023/08/28 01:18:55;;;;;;;2.17;1.60;;;;;;;;;;5112223;28;20031;-74
2023/08/28 01:21:21;;;;;;;6.07;1.40;;;;;;;;;;5092381;28;20020;-74
2023/08/28 01:23:49;;;;;;;4.20;1.60;;;;;;;;;;5095036;28;20290;-74
2023/08/28 01:26:16;;;;;;;3.73;1.67;;;;;;;;;;5090409;28;20024;-74
2023/08/28 01:28:44;;;;;;;2.00;1.40;;;;;;;;;;5110700;28;20016;-75
2023/08/28 01:31:11;;;;;;;4.20;1.63;;;;;;;;;;5095766;28;20008;-75
2023/08/28 01:33:40;;;;;;;10.50;1.57;;;;;;;;;;5109285;28;20078;-74
2023/08/28 01:36:09;;;;;;;2.23;1.30;;;;;;;;;;5112316;28;20032;-73
2023/08/28 01:38:41;;;;;;;3.10;1.43;;;;;;;;;;5096811;28;20036;-74
2023/08/28 01:41:08;;;;;;;3.20;1.53;;;;;;;;;;5095849;28;20016;-74
2023/08/28 01:43:38;;;;;;;4.13;1.73;;;;;;;;;;5095392;28;20020;-74
2023/08/28 01:46:06;;;;;;;4.33;1.47;;;;;;;;;;5095552;28;20020;-74
2023/08/28 01:48:35;;;;;;;3.70;1.50;;;;;;;;;;5095141;28;20020;-74
2023/08/28 01:51:04;;;;;;;3.33;1.80;;;;;;;;;;5111103;28;20055;-75
2023/08/28 01:53:30;;;;;;;2.80;1.40;;;;;;;;;;5111246;28;20098;-74
2023/08/28 01:56:02;;;;;;;2.13;1.37;;;;;;;;;;5095276;28;20103;-75
2023/08/28 01:58:28;;;;;;;2.77;1.67;;;;;;;;;;5111079;28;20024;-74
2023/08/28 02:00:54;;;;;;;3.30;1.60;;;;;;;;;;5093678;28;20111;-75
2023/08/28 02:03:20;;;;;;;4.40;1.60;;;;;;;;;;5099528;28;20032;-74
2023/08/28 02:05:48;;;;;;;2.73;1.77;;;;;;;;;;5113163;28;20047;-75
2023/08/28 02:08:14;;;;;;;4.53;1.90;;;;;;;;;;5094224;28;20048;-74
2023/08/28 02:10:40;;;;;;;5.93;2.30;;;;;;;;;;5089400;28;20068;-74
2023/08/28 02:13:06;;;;;;;2.40;1.83;;;;;;;;;;5109390;28;20032;-74
2023/08/28 02:15:32;;;;;;;6.83;2.13;;;;;;;;;;5112004;28;20088;-74
2023/08/28 02:17:58;;;;;;;6.23;2.30;;;;;;;;;;5095554;28;20039;-74
2023/08/28 02:20:26;;;;;;;3.03;1.70;;;;;;;;;;5094735;28;20013;-74
2023/08/28 02:22:52;;;;;;;9.70;1.90;;;;;;;;;;5091313;28;20038;-74
2023/08/28 02:25:20;;;;;;;4.03;1.80;;;;;;;;;;5090396;28;20105;-74
2023/08/28 02:27:48;;;;;;;5.17;2.03;;;;;;;;;;5112768;28;20090;-75
2023/08/28 02:30:15;;;;;;;5.00;1.70;;;;;;;;;;5094795;28;20021;-74
2023/08/28 02:32:41;;;;;;;4.23;1.37;;;;;;;;;;5111070;28;20046;-74
2023/08/28 02:35:11;;;;;;;3.80;1.97;;;;;;;;;;5098066;28;20016;-74
2023/08/28 02:37:37;;;;;;;8.10;2.10;;;;;;;;;;5111210;28;20020;-74
2023/08/28 02:40:04;;;;;;;3.93;1.73;;;;;;;;;;5110820;28;20049;-74
2023/08/28 02:42:29;;;;;;;2.77;1.43;;;;;;;;;;5110129;28;20040;-75
2023/08/28 02:44:55;;;;;;;2.90;1.83;;;;;;;;;;5109504;28;20157;-74
2023/08/28 02:47:23;;;;;;;3.33;1.47;;;;;;;;;;5096038;28;20054;-74
2023/08/28 02:49:49;;;;;;;3.50;2.07;;;;;;;;;;5111132;28;20076;-75
2023/08/28 02:52:15;;;;;;;6.10;1.43;;;;;;;;;;5095519;28;20036;-74
2023/08/28 02:54:41;;;;;;;3.17;1.63;;;;;;;;;;5112296;28;20042;-74
2023/08/28 02:57:07;;;;;;;3.90;1.77;;;;;;;;;;5110072;28;20028;-74
2023/08/28 02:59:35;;;;;;;3.13;1.97;;;;;;;;;;5095611;28;20031;-74
2023/08/28 03:02:01;;;;;;;2.73;1.83;;;;;;;;;;5095207;28;20028;-75
2023/08/28 03:04:27;;;;;;;3.90;2.20;;;;;;;;;;5111620;28;20020;-76
2023/08/28 03:06:55;;;;;;;4.87;2.37;;;;;;;;;;5095485;28;20020;-74
2023/08/28 03:09:24;;;;;;;6.03;2.80;;;;;;;;;;5095442;28;20012;-75
2023/08/28 03:11:50;;;;;;;8.93;2.70;;;;;;;;;;5112608;28;20092;-74
2023/08/28 03:14:18;;;;;;;4.90;2.57;;;;;;;;;;5096094;28;20061;-73
2023/08/28 03:16:44;;;;;;;11.10;3.30;;;;;;;;;;5089682;28;20012;-74
2023/08/28 03:19:13;;;;;;;5.37;2.83;;;;;;;;;;5090299;28;20016;-74
2023/08/28 03:21:40;;;;;;;6.27;2.40;;;;;;;;;;5097560;28;20017;-74
2023/08/28 03:24:06;;;;;;;5.47;2.97;;;;;;;;;;5110594;28;20092;-74
2023/08/28 03:26:33;;;;;;;4.30;2.50;;;;;;;;;;5110459;28;20097;-74
2023/08/28 03:29:02;;;;;;;5.33;2.43;;;;;;;;;;5112384;28;20028;-74
2023/08/28 03:31:28;;;;;;;5.93;2.23;;;;;;;;;;5089764;28;20044;-74
2023/08/28 03:33:54;;;;;;;3.27;2.50;;;;;;;;;;5095435;28;20110;-74
2023/08/28 03:36:20;;;;;;;3.90;2.40;;;;;;;;;;5091377;28;20016;-74
2023/08/28 03:38:46;;;;;;;3.20;2.13;;;;;;;;;;5092723;28;20201;-75
2023/08/28 03:41:12;;;;;;;4.83;2.77;;;;;;;;;;5094754;28;20020;-74
2023/08/28 03:43:38;;;;;;;4.70;2.90;;;;;;;;;;5090123;28;20028;-74
2023/08/28 03:46:04;;;;;;;7.17;2.93;;;;;;;;;;5104933;28;20013;-74
2023/08/28 03:48:33;;;;;;;6.37;2.77;;;;;;;;;;5090044;28;20016;-74
2023/08/28 03:51:01;;;;;;;3.23;2.37;;;;;;;;;;5094679;28;20185;-74
2023/08/28 03:53:27;;;;;;;5.73;2.60;;;;;;;;;;5113480;28;20031;-75
2023/08/28 03:55:55;;;;;;;3.80;2.40;;;;;;;;;;5114286;28;20024;-74
2023/08/28 03:58:22;;;;;;;3.47;2.17;;;;;;;;;;5116962;28;20008;-74
2023/08/28 04:00:48;;;;;;;5.67;2.70;;;;;;;;;;5098303;28;20080;-75
2023/08/28 04:03:14;;;;;;;5.27;2.57;;;;;;;;;;5100523;28;20082;-74
2023/08/28 04:05:40;;;;;;;4.50;2.50;;;;;;;;;;5095912;28;20028;-74
2023/08/28 04:08:06;;;;;;;4.43;2.20;;;;;;;;;;5112811;28;20092;-74
2023/08/28 04:10:32;;;;;;;4.97;2.00;;;;;;;;;;5097770;28;20070;-74
2023/08/28 04:12:58;;;;;;;2.47;1.80;;;;;;;;;;5113007;28;20067;-74
2023/08/28 04:15:24;;;;;;;3.97;2.20;;;;;;;;;;5097734;28;20023;-74
2023/08/28 04:17:50;;;;;;;2.37;1.90;;;;;;;;;;5114239;28;20066;-74
2023/08/28 04:20:16;;;;;;;7.30;2.20;;;;;;;;;;5095707;28;20016;-74
2023/08/28 04:22:43;;;;;;;2.93;2.33;;;;;;;;;;5113096;28;20036;-74
2023/08/28 04:25:10;;;;;;;3.53;2.10;;;;;;;;;;5097468;28;20243;-75
2023/08/28 04:27:39;;;;;;;5.43;2.17;;;;;;;;;;5096363;28;20039;-74
2023/08/28 04:30:05;;;;;;;3.20;2.43;;;;;;;;;;5092310;28;20012;-75
2023/08/28 04:32:31;;;;;;;2.93;2.20;;;;;;;;;;5093720;28;20127;-74
2023/08/28 04:35:00;;;;;;;2.50;2.17;;;;;;;;;;5097973;28;20120;-78
2023/08/28 04:37:26;;;;;;;3.53;2.23;;;;;;;;;;5098459;28;20036;-74
2023/08/28 04:39:55;;;;;;;2.33;1.80;;;;;;;;;;5114595;28;20024;-75
2023/08/28 04:42:20;;;;;;;3.93;2.07;;;;;;;;;;5094939;28;20021;-75
2023/08/28 04:44:47;;;;;;;2.83;2.10;;;;;;;;;;5116307;28;20115;-74
2023/08/28 04:47:13;;;;;;;3.53;2.47;;;;;;;;;;5098289;28;20031;-75
2023/08/28 04:49:39;;;;;;;6.33;2.77;;;;;;;;;;5099784;28;20008;-75
2023/08/28 04:52:05;;;;;;;3.63;2.60;;;;;;;;;;5114667;28;20075;-74
2023/08/28 04:54:32;;;;;;;3.90;2.40;;;;;;;;;;5098194;28;20031;-74
2023/08/28 04:57:00;;;;;;;3.43;2.70;;;;;;;;;;5101025;28;20027;-74
2023/08/28 04:59:26;;;;;;;9.90;3.07;;;;;;;;;;5091811;28;20020;-74
2023/08/28 05:01:55;;;;;;;5.20;3.30;;;;;;;;;;5092722;28;20040;-75
2023/08/28 05:04:21;;;;;;;6.20;3.07;;;;;;;;;;5113347;28;20028;-75
2023/08/28 05:06:47;;;;;;;6.53;2.87;;;;;;;;;;5094414;28;20012;-74
2023/08/28 05:09:15;;;;;;;5.80;2.50;;;;;;;;;;5097407;28;20024;-75
2023/08/28 05:11:41;;;;;;;10.20;3.60;;;;;;;;;;5112059;28;20031;-74
2023/08/28 05:14:07;;;;;;;4.70;3.43;;;;;;;;;;5092698;28;20028;-75
2023/08/28 05:16:33;;;;;;;5.83;3.73;;;;;;;;;;5091150;28;20093;-74
2023/08/28 05:18:59;;;;;;;8.20;3.50;;;;;;;;;;5113919;28;20016;-75
2023/08/28 05:21:26;;;;;;;6.30;3.40;;;;;;;;;;5095118;28;20055;-75
2023/08/28 05:23:52;;;;;;;5.13;3.30;;;;;;;;;;5091339;28;20032;-74
2023/08/28 05:26:20;;;;;;;5.13;3.20;;;;;;;;;;5096389;28;20138;-74
2023/08/28 05:28:46;;;;;;;7.23;3.40;;;;;;;;;;5093793;28;20020;-74
2023/08/28 05:31:12;;;;;;;4.50;3.40;;;;;;;;;;5111728;28;20021;-76
2023/08/28 05:33:38;;;;;;;7.97;3.10;;;;;;;;;;5094409;28;20009;-74
2023/08/28 05:36:04;;;;;;;6.93;3.50;;;;;;;;;;5094356;28;20020;-74
2023/08/28 05:38:31;;;;;;;6.00;3.73;;;;;;;;;;5110842;28;20042;-74
2023/08/28 05:40:57;;;;;;;7.60;3.43;;;;;;;;;;5110858;28;20032;-74
2023/08/28 05:43:22;;;;;;;5.17;3.13;;;;;;;;;;5096007;28;20088;-75
2023/08/28 05:45:49;;;;;;;9.40;3.50;;;;;;;;;;5110858;28;20016;-75
2023/08/28 05:48:15;;;;;;;9.37;3.90;;;;;;;;;;5112731;28;20019;-74
2023/08/28 05:50:44;;;;;;;8.23;3.30;;;;;;;;;;5111866;28;20020;-74
2023/08/28 05:53:10;;;;;;;5.53;3.43;;;;;;;;;;5112196;28;20032;-75
2023/08/28 05:55:36;;;;;;;5.27;3.80;;;;;;;;;;5089127;28;20088;-74
2023/08/28 05:58:04;;;;;;;8.67;4.53;;;;;;;;;;5095020;28;20023;-75
2023/08/28 06:00:30;;;;;;;8.93;4.70;;;;;;;;;;5109300;28;20039;-75
2023/08/28 06:02:56;;;;;;;7.57;4.30;;;;;;;;;;5091955;28;20068;-76
2023/08/28 06:05:25;;;;;;;5.33;4.80;;;;;;;;;;5093510;28;20015;-75
2023/08/28 06:07:51;;;;;;;7.40;4.60;;;;;;;;;;5111125;28;20020;-75
2023/08/28 06:10:19;;;;;;;9.07;4.93;;;;;;;;;;5095686;28;20016;-75
2023/08/28 06:12:46;;;;;;;7.23;5.17;;;;;;;;;;5092539;28;20725;-74
2023/08/28 06:15:19;;;;;;;6.53;5.03;;;;;;;;;;5089717;28;20076;-75
2023/08/28 06:17:50;;;;;;;8.25;4.90;;;;;;;;;;5094312;28;20027;-75
2023/08/28 06:20:16;;;;;;;6.93;4.87;;;;;;;;;;5092960;28;20064;-75
2023/08/28 06:22:44;;;;;;;8.30;5.83;;;;;;;;;;5110154;28;20043;-75
2023/08/28 06:25:12;;;;;;;7.57;5.43;;;;;;;;;;5096621;28;20029;-75
2023/08/28 06:27:39;;;;;;;14.50;6.17;;;;;;;;;;5093848;28;20020;-75
2023/08/28 06:30:08;;;;;;;9.07;5.57;;;;;;;;;;5095161;28;20028;-75
2023/08/28 06:32:34;;;;;;;5.83;5.10;;;;;;;;;;5091891;28;20051;-75
2023/08/28 06:35:00;;;;;;;9.17;5.70;;;;;;;;;;5087115;28;20030;-75
2023/08/28 06:37:26;;;;;;;13.63;5.70;;;;;;;;;;5094510;28;20016;-75
2023/08/28 06:39:53;;;;;;;8.30;5.13;;;;;;;;;;5092254;28;20028;-75
2023/08/28 06:42:19;;;;;;;7.70;5.00;;;;;;;;;;5110679;28;20046;-75
2023/08/28 06:44:45;;;;;;;8.03;5.03;;;;;;;;;;5110649;28;20096;-75
2023/08/28 06:47:12;;;;;;;8.97;4.83;;;;;;;;;;5093051;28;20028;-74
2023/08/28 06:49:38;;;;;;;8.77;5.33;;;;;;;;;;5093174;28;20012;-75
2023/08/28 06:52:05;;;;;;;7.00;4.23;;;;;;;;;;5109650;28;20050;-75
2023/08/28 06:54:32;;;;;;;8.00;4.73;;;;;;;;;;5094407;28;20034;-74
2023/08/28 06:56:58;;;;;;;9.23;4.90;;;;;;;;;;5094660;28;20035;-75
2023/08/28 06:59:24;;;;;;;9.53;4.83;;;;;;;;;;5108611;28;20074;-75
2023/08/28 07:01:52;;;;;;;7.57;4.90;;;;;;;;;;5094097;28;20028;-75
2023/08/28 07:04:18;;;;;;;9.03;5.47;;;;;;;;;;5090842;28;20044;-74
2023/08/28 07:06:47;;;;;;;7.27;4.73;;;;;;;;;;5092738;28;20055;-75
2023/08/28 07:09:15;;;;;;;9.63;5.03;;;;;;;;;;5089520;28;20008;-74
2023/08/28 07:11:41;;;;;;;6.80;5.17;;;;;;;;;;5093397;28;20066;-75
2023/08/28 07:14:09;;;;;;;9.53;5.70;;;;;;;;;;5109502;28;20039;-75
2023/08/28 07:16:35;;;;;;;14.90;6.63;;;;;;;;;;5110581;28;20043;-75
2023/08/28 07:19:04;;;;;;;9.43;5.15;;;;;;;;;;5094211;28;20024;-75
2023/08/28 07:21:30;;;;;;;14.88;4.93;;;;;;;;;;5094027;28;20028;-75
2023/08/28 07:23:56;;;;;;;8.30;5.10;;;;;;;;;;5092648;28;20042;-75
2023/08/28 07:26:22;;;;;;;9.03;4.93;;;;;;;;;;5095289;28;20139;-75
2023/08/28 07:28:48;;;;;;;10.73;4.82;;;;;;;;;;5113877;28;20036;-75
2023/08/28 07:31:17;;;;;;;6.28;4.35;;;;;;;;;;5095965;28;20099;-75
2023/08/28 07:33:43;;;;;;;11.32;4.22;;;;;;;;;;5113146;28;20043;-75
2023/08/28 07:36:09;;;;;;;7.80;5.05;;;;;;;;;;5113680;28;20090;-75
2023/08/28 07:38:35;;;;;;;5.15;3.95;;;;;;;;;;5096366;28;20016;-75
2023/08/28 07:41:01;;;;;;;7.97;4.25;;;;;;;;;;5112890;28;20020;-76
2023/08/28 07:43:27;;;;;;;6.82;4.43;;;;;;;;;;5113762;28;20034;-75
2023/08/28 07:45:53;;;;;;;9.85;4.43;;;;;;;;;;5092536;28;20044;-75
2023/08/28 07:48:21;;;;;;;8.57;3.67;;;;;;;;;;5093276;28;20008;-75
2023/08/28 07:50:47;;;;;;;13.52;3.85;;;;;;;;;;5096225;28;20122;-75
2023/08/28 07:53:13;;;;;;;8.43;4.20;;;;;;;;;;5113628;28;20032;-75
2023/08/28 07:55:39;;;;;;;10.10;4.57;;;;;;;;;;5095292;28;20047;-74
2023/08/28 07:58:06;;;;;;;8.30;4.55;;;;;;;;;;5113008;28;20031;-75
2023/08/28 08:00:34;;;;;;;9.57;4.20;;;;;;;;;;5095922;28;20081;-75
2023/08/28 08:03:03;;;;;;;13.55;4.88;;;;;;;;;;5112345;28;20087;-74
2023/08/28 08:05:30;;;;;;;9.07;4.65;;;;;;;;;;5097462;28;20028;-75
2023/08/28 08:07:56;;;;;;;7.05;4.72;;;;;;;;;;5096082;28;20016;-75
2023/08/28 08:10:22;;;;;;;10.35;6.35;;;;;;;;;;5092449;28;20332;-75
2023/08/28 08:12:48;;;;;;;13.15;4.85;;;;;;;;;;5112349;28;20036;-76
2023/08/28 08:15:16;;;;;;;8.45;4.85;;;;;;;;;;5093279;28;20027;-75
2023/08/28 08:17:42;;;;;;;7.97;4.80;;;;;;;;;;5111722;28;20035;-75
2023/08/28 08:20:10;;;;;;;10.93;4.68;;;;;;;;;;5096471;28;20404;-75
2023/08/28 08:22:42;;;;;;;8.65;3.90;;;;;;;;;;5112352;28;20036;-75
2023/08/28 08:25:10;;;;;;;8.48;4.80;;;;;;;;;;5112420;28;20033;-75
2023/08/28 08:27:38;;;;;;;8.27;4.05;;;;;;;;;;5089680;28;20028;-75
2023/08/28 08:30:04;;;;;;;5.32;3.25;;;;;;;;;;5089965;28;20043;-75
2023/08/28 08:32:30;;;;;;;6.05;3.80;;;;;;;;;;5111615;28;20046;-74
2023/08/28 08:34:58;;;;;;;10.50;4.07;;;;;;;;;;5089723;28;20024;-75
2023/08/28 08:37:25;;;;;;;10.43;3.92;;;;;;;;;;5096879;28;20035;-75
2023/08/28 08:39:50;;;;;;;7.97;3.80;;;;;;;;;;5110677;28;20020;-75
2023/08/28 08:42:16;;;;;;;10.52;4.38;;;;;;;;;;5111637;28;20024;-75
2023/08/28 08:44:42;;;;;;;7.13;3.00;;;;;;;;;;5094532;28;20016;-75
2023/08/28 08:47:09;;;;;;;9.52;3.55;;;;;;;;;;5090861;28;20043;-75
2023/08/28 08:49:39;;;;;;;5.00;2.70;;;;;;;;;;5110376;28;20289;-75
2023/08/28 08:52:08;;;;;;;10.77;4.10;;;;;;;;;;5110895;28;20050;-74
2023/08/28 08:54:41;;;;;;;4.95;2.60;;;;;;;;;;5110067;28;20012;-75
2023/08/28 08:57:15;;;;;;;8.10;2.90;;;;;;;;;;5090836;28;20037;-75
2023/08/28 08:59:44;;;;;;;7.10;3.10;;;;;;;;;;5096214;28;20032;-75
2023/08/28 09:02:10;;;;;;;14.60;3.40;;;;;;;;;;5094754;28;20028;-74
2023/08/28 09:04:36;;;;;;;7.28;2.78;;;;;;;;;;5093145;28;20040;-77
2023/08/28 09:07:03;;;;;;;7.72;3.60;;;;;;;;;;5081129;28;20039;-76
2023/08/28 09:09:31;;;;;;;6.43;2.55;;;;;;;;;;5077183;28;20039;-79
2023/08/28 09:11:57;;;;;;;6.88;2.85;;;;;;;;;;5091962;28;20036;-81
2023/08/28 09:14:23;;;;;;;4.78;2.47;;;;;;;;;;5087987;28;20537;-81
2023/08/28 09:16:49;;;;;;;6.15;2.50;;;;;;;;;;5082257;28;20048;-78
2023/08/28 09:19:18;;;;;;;12.57;3.97;;;;;;;;;;5093011;28;20238;-78
2023/08/28 09:21:47;;;;;;;8.82;3.10;;;;;;;;;;5089334;28;20028;-76
2023/08/28 09:24:13;;;;;;;24.65;3.67;;;;;;;;;;5092624;28;21907;-80
2023/08/28 09:26:40;;;;;;;7.05;2.75;;;;;;;;;;5085033;28;20043;-77
2023/08/28 09:29:09;;;;;;;6.60;4.25;;;;;;;;;;5103643;28;20028;-77
2023/08/28 09:31:46;;;;;;;6.75;4.40;;;;;;;;;;5092359;28;20031;-76
2023/08/28 09:34:13;;;;;;;9.35;5.80;;;;;;;;;;5090920;28;20208;-76
2023/08/28 09:36:43;;;;;;;7.95;5.88;;;;;;;;;;5086878;28;20051;-79
2023/08/28 09:39:11;;;;;;;7.95;5.40;;;;;;;;;;5097861;28;20048;-76
2023/08/28 09:41:44;;;;;;;7.75;4.60;;;;;;;;;;5093374;28;20020;-75
2023/08/28 09:44:10;;;;;;;;;;;;;;;;;;5111308;28;20072;-75
2023/08/28 09:46:37;;;;;;;8.50;5.45;;;;;;;;;;5097986;28;19915;-75
2023/08/28 09:49:03;;;;;;;9.90;4.75;;;;;;;;;;5109811;28;20020;-75
2023/08/28 09:51:42;;;;;;;12.88;4.85;;;;;;;;;;5109961;28;20032;-76
2023/08/28 09:54:09;;;;;;;6.30;3.88;;;;;;;;;;5095561;28;20044;-81
2023/08/28 09:56:35;;;;;;;11.35;4.22;;;;;;;;;;5086117;28;20629;-85
2023/08/28 09:59:03;;;;;;;8.35;4.25;;;;;;;;;;5068852;28;20032;-78
2023/08/28 10:01:31;;;;;;;6.45;3.17;;;;;;;;;;5090638;28;20019;-75
2023/08/28 10:04:01;;;;;;;5.55;2.80;;;;;;;;;;5086601;28;20411;-79
2023/08/28 10:06:31;;;;;;;5.47;2.63;;;;;;;;;;5088049;28;20046;-82
2023/08/28 10:09:05;;;;;;;7.00;2.45;;;;;;;;;;5082762;28;20035;-76
2023/08/28 10:11:36;;;;;;;4.63;2.85;;;;;;;;;;5109245;28;20054;-75
2023/08/28 10:14:03;;;;;;;5.20;2.78;;;;;;;;;;5092818;28;20032;-81
2023/08/28 10:16:30;;;;;;;6.40;2.60;;;;;;;;;;5087506;28;20032;-82
2023/08/28 10:19:01;;;;;;;5.80;2.20;;;;;;;;;;5086910;28;20051;-82
2023/08/28 10:21:29;;;;;;;5.60;2.33;;;;;;;;;;5103449;28;20036;-76
2023/08/28 10:23:56;;;;;;;5.63;2.08;;;;;;;;;;5094062;28;20036;-80
2023/08/28 10:26:25;;;;;;;2.92;2.00;;;;;;;;;;5090994;28;20367;-83
2023/08/28 10:28:53;;;;;;;2.75;1.30;;;;;;;;;;5086027;28;20079;-81
2023/08/28 10:31:20;;;;;;;4.72;2.20;;;;;;;;;;5089140;28;20032;-81
2023/08/28 10:33:47;;;;;;;3.65;1.10;;;;;;;;;;5067722;28;20111;-82
2023/08/28 10:36:14;;;;;;;6.70;1.88;;;;;;;;;;5067050;28;20032;-80
2023/08/28 10:38:40;;;;;;;3.58;1.17;;;;;;;;;;5083101;28;20024;-84
2023/08/28 10:41:06;;;;;;;4.10;1.88;;;;;;;;;;5065423;28;20035;-83
2023/08/28 10:43:35;;;;;;;4.90;1.80;;;;;;;;;;5070980;28;20040;-78
2023/08/28 10:46:03;;;;;;;4.65;1.92;;;;;;;;;;5089225;28;20028;-82
2023/08/28 10:48:31;;;;;;;8.75;1.98;;;;;;;;;;5064281;28;20122;-82
2023/08/28 10:50:57;;;;;;;5.22;2.05;;;;;;;;;;5068625;28;20502;-81
2023/08/28 10:53:29;;;;;;;4.45;1.88;;;;;;;;;;5070271;28;20031;-82
2023/08/28 10:55:56;;;;;;;3.33;1.33;;;;;;;;;;5084925;28;20097;-85
2023/08/28 10:58:22;;;;;;;6.22;2.13;;;;;;;;;;5083571;28;20031;-86
2023/08/28 11:00:49;;;;;;;2.30;1.60;;;;;;;;;;5084523;28;20028;-83
2023/08/28 11:03:15;;;;;;;4.55;1.25;;;;;;;;;;5065912;28;20740;-84
2023/08/28 11:05:44;;;;;;;4.35;1.40;;;;;;;;;;5087552;28;20032;-83
2023/08/28 11:08:11;;;;;;;4.32;1.50;;;;;;;;;;5071352;28;20062;-81
2023/08/28 11:10:45;;;;;;;2.67;1.13;;;;;;;;;;5088483;28;20060;-85
2023/08/28 11:13:22;;;;;;;8.25;1.88;;;;;;;;;;5087924;28;20023;-86
2023/08/28 11:15:49;;;;;;;3.08;1.10;;;;;;;;;;5073400;28;20036;-85
2023/08/28 11:18:19;;;;;;;3.10;1.60;;;;;;;;;;5075272;28;20113;-83
2023/08/28 11:20:51;;;;;;;4.00;1.13;;;;;;;;;;5068054;28;20834;-83
2023/08/28 11:23:24;;;;;;;0.90;0.60;;;;;;;;;;5066216;28;20047;-84
2023/08/28 11:25:51;;;;;;;2.30;1.25;;;;;;;;;;5069703;28;20088;-84
2023/08/28 11:28:23;;;;;;;0.95;0.70;;;;;;;;;;5085860;28;20024;-84
2023/08/28 11:30:49;;;;;;;3.55;0.90;;;;;;;;;;5065275;28;20344;-81
2023/08/28 11:33:15;;;;;;;3.10;1.00;;;;;;;;;;5071709;28;20035;-86
2023/08/28 11:35:41;;;;;;;1.73;0.60;;;;;;;;;;5086814;28;20024;-84
2023/08/28 11:38:07;;;;;;;3.83;0.85;;;;;;;;;;5087022;28;20484;-83
2023/08/28 11:40:33;;;;;;;2.22;0.50;;;;;;;;;;5066152;28;20063;-85
2023/08/28 11:43:04;;;;;;;3.08;0.80;;;;;;;;;;5070705;28;20418;-84
2023/08/28 11:45:30;;;;;;;3.00;0.65;;;;;;;;;;5069459;28;20028;-82
2023/08/28 11:48:00;;;;;;;4.45;0.98;;;;;;;;;;5087469;28;20461;-83
2023/08/28 11:50:26;;;;;;;1.70;0.70;;;;;;;;;;5087690;28;20028;-83
2023/08/28 11:52:52;;;;;;;6.55;0.55;;;;;;;;;;5087489;28;20063;-86
2023/08/28 11:55:23;;;;;;;2.03;0.73;;;;;;;;;;5072472;28;20054;-86
2023/08/28 11:57:53;;;;;;;1.85;0.60;;;;;;;;;;5086548;28;20032;-84
2023/08/28 12:00:19;;;;;;;4.43;0.50;;;;;;;;;;5070705;28;20020;-84
2023/08/28 12:02:48;;;;;;;1.40;0.60;;;;;;;;;;5087860;28;20112;-82
2023/08/28 12:05:20;;;;;;;2.08;0.70;;;;;;;;;;5087362;28;20116;-85
2023/08/28 12:07:47;;;;;;;2.45;0.60;;;;;;;;;;5069597;28;20043;-84
2023/08/28 12:10:16;;;;;;;1.55;0.55;;;;;;;;;;5088346;28;20110;-84
2023/08/28 12:12:43;;;;;;;1.63;0.40;;;;;;;;;;5066136;28;20036;-82
2023/08/28 12:15:09;;;;;;;1.92;0.88;;;;;;;;;;5065344;28;20155;-85
2023/08/28 12:17:38;;;;;;;0.40;0.22;;;;;;;;;;5087697;28;20028;-83
2023/08/28 12:20:11;;;;;;;1.73;0.70;;;;;;;;;;5087904;28;20077;-82
2023/08/28 12:22:42;;;;;;;1.98;0.90;;;;;;;;;;5087514;28;20024;-81
2023/08/28 12:25:08;;;;;;;2.45;0.40;;;;;;;;;;5086396;28;20163;-84
2023/08/28 12:27:34;;;;;;;0.50;0.30;;;;;;;;;;5071220;28;20455;-85
2023/08/28 12:30:00;;;;;;;3.10;0.32;;;;;;;;;;5087944;28;20046;-84
2023/08/28 12:32:26;;;;;;;2.60;0.50;;;;;;;;;;5084816;28;20028;-84
2023/08/28 12:34:53;;;;;;;1.75;0.30;;;;;;;;;;5070560;28;20032;-82
2023/08/28 12:37:19;;;;;;;7.22;0.70;;;;;;;;;;5085580;28;20449;-82
2023/08/28 12:39:46;;;;;;;1.75;0.50;;;;;;;;;;5081163;28;20034;-84
2023/08/28 12:42:14;;;;;;;1.02;0.70;;;;;;;;;;5064855;28;20032;-83
2023/08/28 12:44:41;;;;;;;2.03;0.50;;;;;;;;;;5085870;28;20155;-83
2023/08/28 12:47:08;;;;;;;1.73;0.50;;;;;;;;;;5087259;28;20039;-82
2023/08/28 12:49:34;;;;;;;1.13;0.43;;;;;;;;;;5067516;28;20089;-81
2023/08/28 12:52:00;;;;;;;0.80;0.40;;;;;;;;;;5087185;28;20036;-84
2023/08/28 12:54:29;;;;;;;4.53;0.57;;;;;;;;;;5067571;28;20453;-81
2023/08/28 12:56:54;;;;;;;2.08;0.80;;;;;;;;;;5071984;28;20028;-84
2023/08/28 12:59:23;;;;;;;4.18;0.80;;;;;;;;;;5073301;28;20020;-82
2023/08/28 13:01:51;;;;;;;3.65;0.95;;;;;;;;;;5088238;28;20024;-83
2023/08/28 13:04:17;;;;;;;2.42;0.52;;;;;;;;;;5070898;28;20071;-83
2023/08/28 13:06:43;;;;;;;1.85;0.43;;;;;;;;;;5071690;28;20059;-83
2023/08/28 13:09:09;;;;;;;1.33;0.52;;;;;;;;;;5069570;28;20444;-82
2023/08/28 13:11:37;;;;;;;2.08;0.80;;;;;;;;;;5087104;28;20089;-81
2023/08/28 13:14:04;;;;;;;1.77;0.47;;;;;;;;;;5069416;28;20052;-82
2023/08/28 13:16:30;;;;;;;3.05;0.80;;;;;;;;;;5068321;28;20804;-82
2023/08/28 13:19:03;;;;;;;1.88;0.68;;;;;;;;;;5063455;28;20032;-82
2023/08/28 13:21:30;;;;;;;4.25;0.95;;;;;;;;;;5084525;28;20031;-81
2023/08/28 13:23:56;;;;;;;0.95;0.40;;;;;;;;;;5085431;28;20031;-85
2023/08/28 13:26:22;;;;;;;1.00;0.60;;;;;;;;;;5063965;28;20027;-84
2023/08/28 13:28:48;;;;;;;1.00;0.50;;;;;;;;;;5085464;28;20028;-81
2023/08/28 13:31:14;;;;;;;1.70;0.77;;;;;;;;;;5064456;28;20115;-85
2023/08/28 13:33:40;;;;;;;1.38;0.60;;;;;;;;;;5086198;28;20041;-86
2023/08/28 13:36:07;;;;;;;1.52;0.57;;;;;;;;;;5083659;28;20036;-81
2023/08/28 13:38:34;;;;;;;2.45;0.70;;;;;;;;;;5064733;28;20035;-83
2023/08/28 13:41:00;;;;;;;1.88;0.50;;;;;;;;;;5068426;28;20137;-84
2023/08/28 13:43:27;;;;;;;4.03;0.75;;;;;;;;;;5084264;28;20040;-82
2023/08/28 13:45:55;;;;;;;2.72;0.52;;;;;;;;;;5070477;28;20495;-84
2023/08/28 13:48:22;;;;;;;2.95;0.93;;;;;;;;;;5062394;28;20201;-81
2023/08/28 13:50:49;;;;;;;2.63;0.70;;;;;;;;;;5066970;28;20089;-82
2023/08/28 13:53:15;;;;;;;2.47;0.70;;;;;;;;;;5084542;28;20028;-81
2023/08/28 13:55:42;;;;;;;5.78;0.90;;;;;;;;;;5086922;28;20023;-82
2023/08/28 13:58:08;;;;;;;1.73;0.60;;;;;;;;;;5085613;28;20016;-81
2023/08/28 14:00:34;;;;;;;1.55;0.70;;;;;;;;;;5071593;28;20027;-82
2023/08/28 14:03:00;;;;;;;1.73;0.70;;;;;;;;;;5083154;28;20628;-81
2023/08/28 14:05:29;;;;;;;1.55;0.50;;;;;;;;;;5086224;28;20036;-80
2023/08/28 14:07:57;;;;;;;3.38;0.57;;;;;;;;;;5084290;28;20040;-83
2023/08/28 14:10:23;;;;;;;1.38;0.68;;;;;;;;;;5067476;28;20877;-81
2023/08/28 14:12:49;;;;;;;3.22;0.68;;;;;;;;;;5087446;28;20040;-87
2023/08/28 14:15:15;;;;;;;3.28;0.63;;;;;;;;;;5086484;28;20060;-84
2023/08/28 14:17:41;;;;;;;1.67;0.90;;;;;;;;;;5084679;28;20072;-84
2023/08/28 14:20:09;;;;;;;3.83;0.57;;;;;;;;;;5084828;28;20056;-81
2023/08/28 14:22:35;;;;;;;1.08;0.60;;;;;;;;;;5066908;28;20032;-81
2023/08/28 14:25:02;;;;;;;3.95;0.55;;;;;;;;;;5063461;28;20074;-83
2023/08/28 14:27:28;;;;;;;1.70;0.40;;;;;;;;;;5065901;28;20090;-83
2023/08/28 14:29:57;;;;;;;1.77;0.60;;;;;;;;;;5083228;28;20048;-83
2023/08/28 14:32:25;;;;;;;3.45;0.60;;;;;;;;;;5067571;28;20093;-84
2023/08/28 14:34:53;;;;;;;1.95;0.57;;;;;;;;;;5084329;28;20020;-83
2023/08/28 14:37:19;;;;;;;2.88;0.82;;;;;;;;;;5066335;28;20524;-85
2023/08/28 14:39:45;;;;;;;2.05;0.50;;;;;;;;;;5084202;28;20695;-90
2023/08/28 14:42:11;;;;;;;4.43;1.13;;;;;;;;;;5063774;28;20040;-84